sensor_id;sensor_type;location;lat;lon;timestamp;temperature;humidity
16408;DHT22;8313;49.894;8.084;2023-01-26T00:01:49;2.80;99.90
16408;DHT22;8313;49.894;8.084;2023-01-26T00:04:15;2.70;99.90
16408;DHT22;8313;49.894;8.084;2023-01-26T00:06:41;2.70;99.90
16408;DHT22;8313;49.894;8.084;2023-01-26T00:09:12;2.70;99.90
16408;DHT22;8313;49.894;8.084;2023-01-26T00:11:38;2.70;99.90
16408;DHT22;8313;49.894;8.084;2023-01-26T00:14:04;2.80;99.90
16408;DHT22;8313;49.894;8.084;2023-01-26T00:16:30;2.80;99.90
16408;DHT22;8313;49.894;8.084;2023-01-26T00:18:55;2.80;99.90
16408;DHT22;8313;49.894;8.084;2023-01-26T00:21:22;2.80;99.90
16408;DHT22;8313;49.894;8.084;2023-01-26T00:23:48;2.80;99.90
16408;DHT22;8313;49.894;8.084;2023-01-26T00:26:19;2.80;99.90
16408;DHT22;8313;49.894;8.084;2023-01-26T00:28:45;2.80;99.90
16408;DHT22;8313;49.894;8.084;2023-01-26T00:31:29;2.80;99.90
16408;DHT22;8313;49.894;8.084;2023-01-26T00:33:55;2.70;99.90
16408;DHT22;8313;49.894;8.084;2023-01-26T00:36:21;2.70;99.90
16408;DHT22;8313;49.894;8.084;2023-01-26T00:38:47;2.70;99.90
16408;DHT22;8313;49.894;8.084;2023-01-26T00:41:13;2.70;99.90
16408;DHT22;8313;49.894;8.084;2023-01-26T00:43:57;2.70;99.90
16408;DHT22;8313;49.894;8.084;2023-01-26T00:46:23;2.70;99.90
16408;DHT22;8313;49.894;8.084;2023-01-26T00:48:49;2.70;99.90
16408;DHT22;8313;49.894;8.084;2023-01-26T00:51:14;2.60;99.90
16408;DHT22;8313;49.894;8.084;2023-01-26T00:53:40;2.60;99.90
16408;DHT22;8313;49.894;8.084;2023-01-26T00:56:06;2.60;99.90
16408;DHT22;8313;49.894;8.084;2023-01-26T00:58:32;2.70;99.90
16408;DHT22;8313;49.894;8.084;2023-01-26T01:00:57;2.60;99.90
16408;DHT22;8313;49.894;8.084;2023-01-26T01:03:23;2.60;99.90
16408;DHT22;8313;49.894;8.084;2023-01-26T01:05:49;2.50;99.90
16408;DHT22;8313;49.894;8.084;2023-01-26T01:08:16;2.50;99.90
16408;DHT22;8313;49.894;8.084;2023-01-26T01:10:41;2.50;99.90
16408;DHT22;8313;49.894;8.084;2023-01-26T01:13:07;2.50;99.90
16408;DHT22;8313;49.894;8.084;2023-01-26T01:15:32;2.50;99.90
16408;DHT22;8313;49.894;8.084;2023-01-26T01:17:58;2.40;99.90
16408;DHT22;8313;49.894;8.084;2023-01-26T01:20:24;2.40;99.90
16408;DHT22;8313;49.894;8.084;2023-01-26T01:22:50;2.30;99.90
16408;DHT22;8313;49.894;8.084;2023-01-26T01:25:16;2.30;99.90
16408;DHT22;8313;49.894;8.084;2023-01-26T01:27:41;2.30;99.90
16408;DHT22;8313;49.894;8.084;2023-01-26T01:30:07;2.30;99.90
16408;DHT22;8313;49.894;8.084;2023-01-26T01:32:36;2.30;99.90
16408;DHT22;8313;49.894;8.084;2023-01-26T01:35:04;2.30;99.90
16408;DHT22;8313;49.894;8.084;2023-01-26T01:37:30;2.30;99.90
16408;DHT22;8313;49.894;8.084;2023-01-26T01:39:58;2.30;99.90
16408;DHT22;8313;49.894;8.084;2023-01-26T01:42:24;2.30;99.90
16408;DHT22;8313;49.894;8.084;2023-01-26T01:47:54;2.20;99.90
16408;DHT22;8313;49.894;8.084;2023-01-26T01:50:21;2.20;99.90
16408;DHT22;8313;49.894;8.084;2023-01-26T01:52:46;2.10;99.90
16408;DHT22;8313;49.894;8.084;2023-01-26T01:55:14;2.30;99.90
16408;DHT22;8313;49.894;8.084;2023-01-26T01:57:47;2.30;99.90
16408;DHT22;8313;49.894;8.084;2023-01-26T02:00:18;2.30;99.90
16408;DHT22;8313;49.894;8.084;2023-01-26T02:02:59;2.30;99.90
16408;DHT22;8313;49.894;8.084;2023-01-26T02:08:17;2.30;99.90
16408;DHT22;8313;49.894;8.084;2023-01-26T02:10:48;2.20;99.90
16408;DHT22;8313;49.894;8.084;2023-01-26T02:13:18;2.20;99.90
16408;DHT22;8313;49.894;8.084;2023-01-26T02:15:45;2.30;99.90
16408;DHT22;8313;49.894;8.084;2023-01-26T02:18:11;2.20;99.90
16408;DHT22;8313;49.894;8.084;2023-01-26T02:20:42;2.30;99.90
16408;DHT22;8313;49.894;8.084;2023-01-26T02:28:31;2.00;99.90
16408;DHT22;8313;49.894;8.084;2023-01-26T02:30:57;2.10;99.90
16408;DHT22;8313;49.894;8.084;2023-01-26T02:33:26;2.20;99.90
16408;DHT22;8313;49.894;8.084;2023-01-26T02:35:55;2.20;99.90
16408;DHT22;8313;49.894;8.084;2023-01-26T02:38:22;2.30;99.90
16408;DHT22;8313;49.894;8.084;2023-01-26T02:41:10;2.20;99.90
16408;DHT22;8313;49.894;8.084;2023-01-26T02:43:37;2.20;99.90
16408;DHT22;8313;49.894;8.084;2023-01-26T02:46:03;2.10;99.90
16408;DHT22;8313;49.894;8.084;2023-01-26T02:48:29;2.20;99.90
16408;DHT22;8313;49.894;8.084;2023-01-26T02:51:13;2.20;99.90
16408;DHT22;8313;49.894;8.084;2023-01-26T02:53:38;2.20;99.90
16408;DHT22;8313;49.894;8.084;2023-01-26T02:56:05;2.30;99.90
16408;DHT22;8313;49.894;8.084;2023-01-26T02:58:32;2.30;99.90
16408;DHT22;8313;49.894;8.084;2023-01-26T03:00:58;2.30;99.90
16408;DHT22;8313;49.894;8.084;2023-01-26T03:03:26;2.20;99.90
16408;DHT22;8313;49.894;8.084;2023-01-26T03:06:07;2.20;99.90
16408;DHT22;8313;49.894;8.084;2023-01-26T03:08:34;2.30;99.90
16408;DHT22;8313;49.894;8.084;2023-01-26T03:10:59;2.30;99.90
16408;DHT22;8313;49.894;8.084;2023-01-26T03:13:25;2.30;99.90
16408;DHT22;8313;49.894;8.084;2023-01-26T03:15:51;2.20;99.90
16408;DHT22;8313;49.894;8.084;2023-01-26T03:18:22;2.10;99.90
16408;DHT22;8313;49.894;8.084;2023-01-26T03:21:11;2.20;99.90
16408;DHT22;8313;49.894;8.084;2023-01-26T03:23:56;2.20;99.90
16408;DHT22;8313;49.894;8.084;2023-01-26T03:26:41;2.20;99.90
16408;DHT22;8313;49.894;8.084;2023-01-26T03:29:26;2.20;99.90
16408;DHT22;8313;49.894;8.084;2023-01-26T03:31:54;2.20;99.90
16408;DHT22;8313;49.894;8.084;2023-01-26T03:34:20;2.20;99.90
16408;DHT22;8313;49.894;8.084;2023-01-26T03:36:47;2.30;99.90
16408;DHT22;8313;49.894;8.084;2023-01-26T03:39:14;2.20;99.90
16408;DHT22;8313;49.894;8.084;2023-01-26T03:41:59;2.20;99.90
16408;DHT22;8313;49.894;8.084;2023-01-26T03:44:43;2.10;99.90
16408;DHT22;8313;49.894;8.084;2023-01-26T03:47:29;2.20;99.90
16408;DHT22;8313;49.894;8.084;2023-01-26T03:50:14;2.20;99.90
16408;DHT22;8313;49.894;8.084;2023-01-26T03:52:59;2.20;99.90
16408;DHT22;8313;49.894;8.084;2023-01-26T03:55:43;2.30;99.90
16408;DHT22;8313;49.894;8.084;2023-01-26T03:58:27;2.30;99.90
16408;DHT22;8313;49.894;8.084;2023-01-26T04:00:56;2.30;99.90
16408;DHT22;8313;49.894;8.084;2023-01-26T04:03:22;2.20;99.90
16408;DHT22;8313;49.894;8.084;2023-01-26T04:06:06;2.30;99.90
16408;DHT22;8313;49.894;8.084;2023-01-26T04:08:51;2.30;99.90
16408;DHT22;8313;49.894;8.084;2023-01-26T04:11:17;2.20;99.90
16408;DHT22;8313;49.894;8.084;2023-01-26T04:13:43;2.30;99.90
16408;DHT22;8313;49.894;8.084;2023-01-26T04:16:30;2.30;99.90
16408;DHT22;8313;49.894;8.084;2023-01-26T04:19:15;2.40;99.90
16408;DHT22;8313;49.894;8.084;2023-01-26T04:22:00;2.30;99.90
16408;DHT22;8313;49.894;8.084;2023-01-26T04:24:26;2.30;99.90
16408;DHT22;8313;49.894;8.084;2023-01-26T04:26:55;2.30;99.90
16408;DHT22;8313;49.894;8.084;2023-01-26T04:29:25;2.30;99.90
16408;DHT22;8313;49.894;8.084;2023-01-26T04:31:50;2.30;99.90
16408;DHT22;8313;49.894;8.084;2023-01-26T04:34:19;2.30;99.90
16408;DHT22;8313;49.894;8.084;2023-01-26T04:36:45;2.30;99.90
16408;DHT22;8313;49.894;8.084;2023-01-26T04:39:12;2.30;99.90
16408;DHT22;8313;49.894;8.084;2023-01-26T04:41:41;2.30;99.90
16408;DHT22;8313;49.894;8.084;2023-01-26T04:44:09;2.30;99.90
16408;DHT22;8313;49.894;8.084;2023-01-26T04:46:36;2.20;99.90
16408;DHT22;8313;49.894;8.084;2023-01-26T04:49:03;2.20;99.90
16408;DHT22;8313;49.894;8.084;2023-01-26T04:51:28;2.10;99.90
16408;DHT22;8313;49.894;8.084;2023-01-26T04:53:55;2.20;99.90
16408;DHT22;8313;49.894;8.084;2023-01-26T04:56:27;2.20;99.90
16408;DHT22;8313;49.894;8.084;2023-01-26T04:58:53;2.30;99.90
16408;DHT22;8313;49.894;8.084;2023-01-26T05:01:20;2.20;99.90
16408;DHT22;8313;49.894;8.084;2023-01-26T05:03:46;2.20;99.90
16408;DHT22;8313;49.894;8.084;2023-01-26T05:06:12;2.20;99.90
16408;DHT22;8313;49.894;8.084;2023-01-26T05:08:38;2.20;99.90
16408;DHT22;8313;49.894;8.084;2023-01-26T05:11:05;2.30;99.90
16408;DHT22;8313;49.894;8.084;2023-01-26T05:13:53;2.20;99.90
16408;DHT22;8313;49.894;8.084;2023-01-26T05:16:39;2.20;99.90
16408;DHT22;8313;49.894;8.084;2023-01-26T05:19:13;2.20;99.90
16408;DHT22;8313;49.894;8.084;2023-01-26T05:21:59;2.30;99.90
16408;DHT22;8313;49.894;8.084;2023-01-26T05:24:25;2.30;99.90
16408;DHT22;8313;49.894;8.084;2023-01-26T05:27:29;2.30;99.90
16408;DHT22;8313;49.894;8.084;2023-01-26T05:29:57;2.30;99.90
16408;DHT22;8313;49.894;8.084;2023-01-26T05:32:28;2.30;99.90
16408;DHT22;8313;49.894;8.084;2023-01-26T05:34:54;2.30;99.90
16408;DHT22;8313;49.894;8.084;2023-01-26T05:37:20;2.20;99.90
16408;DHT22;8313;49.894;8.084;2023-01-26T05:39:47;2.20;99.90
16408;DHT22;8313;49.894;8.084;2023-01-26T05:42:13;2.30;99.90
16408;DHT22;8313;49.894;8.084;2023-01-26T05:44:47;2.30;99.90
16408;DHT22;8313;49.894;8.084;2023-01-26T05:47:14;2.20;99.90
16408;DHT22;8313;49.894;8.084;2023-01-26T05:49:42;2.20;99.90
16408;DHT22;8313;49.894;8.084;2023-01-26T05:52:16;2.20;99.90
16408;DHT22;8313;49.894;8.084;2023-01-26T05:54:43;2.10;99.90
16408;DHT22;8313;49.894;8.084;2023-01-26T05:57:09;2.10;99.90
16408;DHT22;8313;49.894;8.084;2023-01-26T05:59:38;2.10;99.90
16408;DHT22;8313;49.894;8.084;2023-01-26T06:02:06;2.20;99.90
16408;DHT22;8313;49.894;8.084;2023-01-26T06:04:32;2.20;99.90
16408;DHT22;8313;49.894;8.084;2023-01-26T06:06:59;2.20;99.90
16408;DHT22;8313;49.894;8.084;2023-01-26T06:09:29;2.30;99.90
16408;DHT22;8313;49.894;8.084;2023-01-26T06:12:17;2.30;99.90
16408;DHT22;8313;49.894;8.084;2023-01-26T06:15:12;2.20;99.90
16408;DHT22;8313;49.894;8.084;2023-01-26T06:17:43;2.20;99.90
16408;DHT22;8313;49.894;8.084;2023-01-26T06:20:12;2.10;99.90
16408;DHT22;8313;49.894;8.084;2023-01-26T06:22:42;2.10;99.90
16408;DHT22;8313;49.894;8.084;2023-01-26T06:25:08;2.10;99.90
16408;DHT22;8313;49.894;8.084;2023-01-26T06:27:34;2.20;99.90
16408;DHT22;8313;49.894;8.084;2023-01-26T06:30:08;2.20;99.90
16408;DHT22;8313;49.894;8.084;2023-01-26T06:32:35;2.20;99.90
16408;DHT22;8313;49.894;8.084;2023-01-26T06:35:01;2.20;99.90
16408;DHT22;8313;49.894;8.084;2023-01-26T06:37:28;2.20;99.90
16408;DHT22;8313;49.894;8.084;2023-01-26T06:39:53;2.20;99.90
16408;DHT22;8313;49.894;8.084;2023-01-26T06:42:19;2.10;99.90
16408;DHT22;8313;49.894;8.084;2023-01-26T06:44:45;2.10;99.90
16408;DHT22;8313;49.894;8.084;2023-01-26T06:47:10;2.00;99.90
16408;DHT22;8313;49.894;8.084;2023-01-26T06:49:38;2.00;99.90
16408;DHT22;8313;49.894;8.084;2023-01-26T06:52:21;2.00;99.90
16408;DHT22;8313;49.894;8.084;2023-01-26T06:54:51;2.00;99.90
16408;DHT22;8313;49.894;8.084;2023-01-26T06:57:27;2.00;99.90
16408;DHT22;8313;49.894;8.084;2023-01-26T07:00:03;2.00;99.90
16408;DHT22;8313;49.894;8.084;2023-01-26T07:02:52;2.00;99.90
16408;DHT22;8313;49.894;8.084;2023-01-26T07:05:17;2.00;99.90
16408;DHT22;8313;49.894;8.084;2023-01-26T07:07:43;2.00;99.90
16408;DHT22;8313;49.894;8.084;2023-01-26T07:10:09;2.00;99.90
16408;DHT22;8313;49.894;8.084;2023-01-26T07:12:43;2.00;99.90
16408;DHT22;8313;49.894;8.084;2023-01-26T07:15:10;2.00;99.90
16408;DHT22;8313;49.894;8.084;2023-01-26T07:17:38;2.00;99.90
16408;DHT22;8313;49.894;8.084;2023-01-26T07:20:04;2.00;99.90
16408;DHT22;8313;49.894;8.084;2023-01-26T07:22:30;2.00;99.90
16408;DHT22;8313;49.894;8.084;2023-01-26T07:24:55;1.90;99.90
16408;DHT22;8313;49.894;8.084;2023-01-26T07:27:21;1.90;99.90
16408;DHT22;8313;49.894;8.084;2023-01-26T07:29:47;1.90;99.90
16408;DHT22;8313;49.894;8.084;2023-01-26T07:32:13;1.90;99.90
16408;DHT22;8313;49.894;8.084;2023-01-26T07:34:38;2.00;99.90
16408;DHT22;8313;49.894;8.084;2023-01-26T07:37:04;1.90;99.90
16408;DHT22;8313;49.894;8.084;2023-01-26T07:39:30;2.00;99.90
16408;DHT22;8313;49.894;8.084;2023-01-26T07:41:56;1.90;99.90
16408;DHT22;8313;49.894;8.084;2023-01-26T07:44:37;2.00;99.90
16408;DHT22;8313;49.894;8.084;2023-01-26T07:47:03;1.90;99.90
16408;DHT22;8313;49.894;8.084;2023-01-26T07:49:29;1.70;99.90
16408;DHT22;8313;49.894;8.084;2023-01-26T07:51:55;1.70;99.90
16408;DHT22;8313;49.894;8.084;2023-01-26T07:54:21;1.70;99.90
16408;DHT22;8313;49.894;8.084;2023-01-26T07:56:50;1.70;99.90
16408;DHT22;8313;49.894;8.084;2023-01-26T07:59:16;1.70;99.90
16408;DHT22;8313;49.894;8.084;2023-01-26T08:01:42;1.70;99.90
16408;DHT22;8313;49.894;8.084;2023-01-26T08:04:07;1.70;99.90
16408;DHT22;8313;49.894;8.084;2023-01-26T08:06:33;1.80;99.90
16408;DHT22;8313;49.894;8.084;2023-01-26T08:08:59;1.70;99.90
16408;DHT22;8313;49.894;8.084;2023-01-26T08:11:24;1.60;99.90
16408;DHT22;8313;49.894;8.084;2023-01-26T08:13:51;1.60;99.90
16408;DHT22;8313;49.894;8.084;2023-01-26T08:16:17;1.50;99.90
16408;DHT22;8313;49.894;8.084;2023-01-26T08:18:44;1.50;99.90
16408;DHT22;8313;49.894;8.084;2023-01-26T08:21:12;1.40;99.90
16408;DHT22;8313;49.894;8.084;2023-01-26T08:23:39;1.50;99.90
16408;DHT22;8313;49.894;8.084;2023-01-26T08:26:10;1.50;99.90
16408;DHT22;8313;49.894;8.084;2023-01-26T08:28:37;1.40;99.90
16408;DHT22;8313;49.894;8.084;2023-01-26T08:31:08;1.50;99.90
16408;DHT22;8313;49.894;8.084;2023-01-26T08:33:36;1.50;99.90
16408;DHT22;8313;49.894;8.084;2023-01-26T08:36:04;1.50;99.90
16408;DHT22;8313;49.894;8.084;2023-01-26T08:38:31;1.50;99.90
16408;DHT22;8313;49.894;8.084;2023-01-26T08:40:58;1.50;99.90
16408;DHT22;8313;49.894;8.084;2023-01-26T08:43:25;1.40;99.90
16408;DHT22;8313;49.894;8.084;2023-01-26T08:45:50;1.40;99.90
16408;DHT22;8313;49.894;8.084;2023-01-26T08:48:16;1.50;99.90
16408;DHT22;8313;49.894;8.084;2023-01-26T08:50:43;1.60;99.90
16408;DHT22;8313;49.894;8.084;2023-01-26T08:53:09;1.60;99.90
16408;DHT22;8313;49.894;8.084;2023-01-26T08:55:35;1.60;99.90
16408;DHT22;8313;49.894;8.084;2023-01-26T08:58:01;1.60;99.90
16408;DHT22;8313;49.894;8.084;2023-01-26T09:00:27;1.60;99.90
16408;DHT22;8313;49.894;8.084;2023-01-26T09:03:04;1.60;99.90
16408;DHT22;8313;49.894;8.084;2023-01-26T09:05:35;1.60;99.90
16408;DHT22;8313;49.894;8.084;2023-01-26T09:08:02;1.40;99.90
16408;DHT22;8313;49.894;8.084;2023-01-26T09:10:28;1.50;99.90
16408;DHT22;8313;49.894;8.084;2023-01-26T09:12:56;1.50;99.90
16408;DHT22;8313;49.894;8.084;2023-01-26T09:15:22;1.60;99.90
16408;DHT22;8313;49.894;8.084;2023-01-26T09:17:48;1.60;99.90
16408;DHT22;8313;49.894;8.084;2023-01-26T09:20:14;1.70;99.90
16408;DHT22;8313;49.894;8.084;2023-01-26T09:22:40;1.70;99.90
16408;DHT22;8313;49.894;8.084;2023-01-26T09:25:07;1.80;99.90
16408;DHT22;8313;49.894;8.084;2023-01-26T09:27:33;1.70;99.90
16408;DHT22;8313;49.894;8.084;2023-01-26T09:29:59;1.70;99.90
16408;DHT22;8313;49.894;8.084;2023-01-26T09:32:24;1.80;99.90
16408;DHT22;8313;49.894;8.084;2023-01-26T09:34:50;1.80;99.90
16408;DHT22;8313;49.894;8.084;2023-01-26T09:37:16;1.70;99.90
16408;DHT22;8313;49.894;8.084;2023-01-26T09:39:42;1.80;99.90
16408;DHT22;8313;49.894;8.084;2023-01-26T09:44:47;1.80;99.90
16408;DHT22;8313;49.894;8.084;2023-01-26T09:47:25;1.70;99.90
16408;DHT22;8313;49.894;8.084;2023-01-26T09:49:59;1.60;99.90
16408;DHT22;8313;49.894;8.084;2023-01-26T09:52:37;1.50;99.90
16408;DHT22;8313;49.894;8.084;2023-01-26T09:55:14;1.50;99.90
16408;DHT22;8313;49.894;8.084;2023-01-26T09:57:49;1.60;99.90
16408;DHT22;8313;49.894;8.084;2023-01-26T10:03:22;1.70;99.90
16408;DHT22;8313;49.894;8.084;2023-01-26T10:08:39;1.70;99.90
16408;DHT22;8313;49.894;8.084;2023-01-26T10:11:31;1.80;99.90
16408;DHT22;8313;49.894;8.084;2023-01-26T10:14:04;1.80;99.90
16408;DHT22;8313;49.894;8.084;2023-01-26T10:16:34;1.80;99.90
16408;DHT22;8313;49.894;8.084;2023-01-26T10:19:40;1.90;99.90
16408;DHT22;8313;49.894;8.084;2023-01-26T10:22:46;1.90;99.90
16408;DHT22;8313;49.894;8.084;2023-01-26T10:25:26;1.90;99.90
16408;DHT22;8313;49.894;8.084;2023-01-26T10:27:54;1.90;99.90
16408;DHT22;8313;49.894;8.084;2023-01-26T10:30:20;1.90;99.90
16408;DHT22;8313;49.894;8.084;2023-01-26T10:32:49;1.90;99.90
16408;DHT22;8313;49.894;8.084;2023-01-26T10:37:44;1.70;99.90
16408;DHT22;8313;49.894;8.084;2023-01-26T10:40:10;1.70;99.90
16408;DHT22;8313;49.894;8.084;2023-01-26T10:42:37;1.70;99.90
16408;DHT22;8313;49.894;8.084;2023-01-26T10:45:22;1.80;99.90
16408;DHT22;8313;49.894;8.084;2023-01-26T10:50:38;1.80;99.90
16408;DHT22;8313;49.894;8.084;2023-01-26T10:53:04;1.80;99.90
16408;DHT22;8313;49.894;8.084;2023-01-26T10:55:32;1.80;99.90
16408;DHT22;8313;49.894;8.084;2023-01-26T10:57:58;1.80;99.90
16408;DHT22;8313;49.894;8.084;2023-01-26T11:00:29;1.80;99.90
16408;DHT22;8313;49.894;8.084;2023-01-26T11:03:18;1.90;99.90
16408;DHT22;8313;49.894;8.084;2023-01-26T11:05:44;1.90;99.90
16408;DHT22;8313;49.894;8.084;2023-01-26T11:08:36;1.80;99.90
16408;DHT22;8313;49.894;8.084;2023-01-26T11:11:03;1.80;99.90
16408;DHT22;8313;49.894;8.084;2023-01-26T11:13:32;1.80;99.90
16408;DHT22;8313;49.894;8.084;2023-01-26T11:16:13;1.80;99.90
16408;DHT22;8313;49.894;8.084;2023-01-26T11:19:02;1.70;99.90
16408;DHT22;8313;49.894;8.084;2023-01-26T11:21:46;1.70;99.90
16408;DHT22;8313;49.894;8.084;2023-01-26T11:24:24;1.70;99.90
16408;DHT22;8313;49.894;8.084;2023-01-26T11:35:28;1.60;99.90
16408;DHT22;8313;49.894;8.084;2023-01-26T11:40:37;1.70;99.90
16408;DHT22;8313;49.894;8.084;2023-01-26T11:46:00;1.60;99.90
16408;DHT22;8313;49.894;8.084;2023-01-26T11:59:35;1.70;99.90
16408;DHT22;8313;49.894;8.084;2023-01-26T12:04:50;1.70;99.90
16408;DHT22;8313;49.894;8.084;2023-01-26T12:07:47;1.60;99.90
16408;DHT22;8313;49.894;8.084;2023-01-26T12:10:36;1.40;99.90
16408;DHT22;8313;49.894;8.084;2023-01-26T12:15:53;1.30;99.90
16408;DHT22;8313;49.894;8.084;2023-01-26T12:18:25;1.40;99.90
16408;DHT22;8313;49.894;8.084;2023-01-26T12:20:59;1.50;99.90
16408;DHT22;8313;49.894;8.084;2023-01-26T12:26:19;1.50;99.90
16408;DHT22;8313;49.894;8.084;2023-01-26T12:28:58;1.50;99.90
16408;DHT22;8313;49.894;8.084;2023-01-26T12:31:33;1.50;99.90
16408;DHT22;8313;49.894;8.084;2023-01-26T12:34:00;1.50;99.90
16408;DHT22;8313;49.894;8.084;2023-01-26T12:39:11;1.50;99.90
16408;DHT22;8313;49.894;8.084;2023-01-26T12:46:57;1.60;99.90
16408;DHT22;8313;49.894;8.084;2023-01-26T12:49:33;1.50;99.90
16408;DHT22;8313;49.894;8.084;2023-01-26T12:52:16;1.50;99.90
16408;DHT22;8313;49.894;8.084;2023-01-26T12:54:55;1.60;99.90
16408;DHT22;8313;49.894;8.084;2023-01-26T12:57:25;1.60;99.90
16408;DHT22;8313;49.894;8.084;2023-01-26T13:00:05;1.60;99.90
16408;DHT22;8313;49.894;8.084;2023-01-26T13:02:34;1.60;99.90
16408;DHT22;8313;49.894;8.084;2023-01-26T13:05:02;1.60;99.90
16408;DHT22;8313;49.894;8.084;2023-01-26T13:10:27;1.70;99.90
16408;DHT22;8313;49.894;8.084;2023-01-26T13:13:52;1.70;99.90
16408;DHT22;8313;49.894;8.084;2023-01-26T13:15:46;1.70;99.90
16408;DHT22;8313;49.894;8.084;2023-01-26T13:18:17;1.80;99.90
16408;DHT22;8313;49.894;8.084;2023-01-26T13:20:47;1.70;99.90
16408;DHT22;8313;49.894;8.084;2023-01-26T13:23:36;1.70;99.90
16408;DHT22;8313;49.894;8.084;2023-01-26T13:28:34;1.70;99.90
16408;DHT22;8313;49.894;8.084;2023-01-26T13:31:04;1.70;99.90
16408;DHT22;8313;49.894;8.084;2023-01-26T13:33:31;1.60;99.90
16408;DHT22;8313;49.894;8.084;2023-01-26T13:35:57;1.70;99.90
16408;DHT22;8313;49.894;8.084;2023-01-26T13:38:38;1.70;99.90
16408;DHT22;8313;49.894;8.084;2023-01-26T13:41:18;1.70;99.90
16408;DHT22;8313;49.894;8.084;2023-01-26T13:43:49;1.80;99.90
16408;DHT22;8313;49.894;8.084;2023-01-26T13:46:46;1.80;99.90
16408;DHT22;8313;49.894;8.084;2023-01-26T13:51:49;1.80;99.90
16408;DHT22;8313;49.894;8.084;2023-01-26T13:54:15;1.70;99.90
16408;DHT22;8313;49.894;8.084;2023-01-26T13:59:27;1.80;99.90
16408;DHT22;8313;49.894;8.084;2023-01-26T14:01:55;1.80;99.90
16408;DHT22;8313;49.894;8.084;2023-01-26T14:04:27;1.80;99.90
16408;DHT22;8313;49.894;8.084;2023-01-26T14:07:06;1.80;99.90
16408;DHT22;8313;49.894;8.084;2023-01-26T14:09:43;1.80;99.90
16408;DHT22;8313;49.894;8.084;2023-01-26T14:14:55;1.90;99.90
16408;DHT22;8313;49.894;8.084;2023-01-26T14:17:30;1.90;99.90
16408;DHT22;8313;49.894;8.084;2023-01-26T14:19:57;1.80;99.90
16408;DHT22;8313;49.894;8.084;2023-01-26T14:22:25;1.80;99.90
16408;DHT22;8313;49.894;8.084;2023-01-26T14:24:52;1.90;99.90
16408;DHT22;8313;49.894;8.084;2023-01-26T14:27:36;1.90;99.90
16408;DHT22;8313;49.894;8.084;2023-01-26T14:30:20;1.90;99.90
16408;DHT22;8313;49.894;8.084;2023-01-26T14:33:15;2.00;99.90
16408;DHT22;8313;49.894;8.084;2023-01-26T14:35:53;1.90;99.90
16408;DHT22;8313;49.894;8.084;2023-01-26T14:38:19;1.90;99.90
16408;DHT22;8313;49.894;8.084;2023-01-26T14:40:49;2.00;99.90
16408;DHT22;8313;49.894;8.084;2023-01-26T14:43:16;2.00;99.90
16408;DHT22;8313;49.894;8.084;2023-01-26T14:46:03;2.00;99.90
16408;DHT22;8313;49.894;8.084;2023-01-26T14:48:36;2.00;99.90
16408;DHT22;8313;49.894;8.084;2023-01-26T14:51:05;2.10;99.90
16408;DHT22;8313;49.894;8.084;2023-01-26T14:53:32;2.10;99.90
16408;DHT22;8313;49.894;8.084;2023-01-26T14:55:58;2.10;99.90
16408;DHT22;8313;49.894;8.084;2023-01-26T14:58:27;2.10;99.90
16408;DHT22;8313;49.894;8.084;2023-01-26T15:00:56;2.10;99.90
16408;DHT22;8313;49.894;8.084;2023-01-26T15:03:26;2.10;99.90
16408;DHT22;8313;49.894;8.084;2023-01-26T15:08:29;2.20;99.90
16408;DHT22;8313;49.894;8.084;2023-01-26T15:10:59;2.20;99.90
16408;DHT22;8313;49.894;8.084;2023-01-26T15:13:51;2.20;99.90
16408;DHT22;8313;49.894;8.084;2023-01-26T15:16:19;2.20;99.90
16408;DHT22;8313;49.894;8.084;2023-01-26T15:18:56;2.20;99.90
16408;DHT22;8313;49.894;8.084;2023-01-26T15:21:31;2.20;99.90
16408;DHT22;8313;49.894;8.084;2023-01-26T15:23:58;2.20;99.90
16408;DHT22;8313;49.894;8.084;2023-01-26T15:28:56;2.20;99.90
16408;DHT22;8313;49.894;8.084;2023-01-26T15:33:59;2.20;99.90
16408;DHT22;8313;49.894;8.084;2023-01-26T15:39:12;2.20;99.90
16408;DHT22;8313;49.894;8.084;2023-01-26T15:41:42;2.20;99.90
16408;DHT22;8313;49.894;8.084;2023-01-26T15:44:14;2.20;99.90
16408;DHT22;8313;49.894;8.084;2023-01-26T15:46:41;2.20;99.90
16408;DHT22;8313;49.894;8.084;2023-01-26T15:49:07;2.20;99.90
16408;DHT22;8313;49.894;8.084;2023-01-26T15:51:34;2.10;99.90
16408;DHT22;8313;49.894;8.084;2023-01-26T15:54:00;2.20;99.90
16408;DHT22;8313;49.894;8.084;2023-01-26T15:56:26;2.20;99.90
16408;DHT22;8313;49.894;8.084;2023-01-26T15:58:51;2.20;99.90
16408;DHT22;8313;49.894;8.084;2023-01-26T16:01:20;2.20;99.90
16408;DHT22;8313;49.894;8.084;2023-01-26T16:03:47;2.20;99.90
16408;DHT22;8313;49.894;8.084;2023-01-26T16:06:20;2.20;99.90
16408;DHT22;8313;49.894;8.084;2023-01-26T16:08:47;2.20;99.90
16408;DHT22;8313;49.894;8.084;2023-01-26T16:11:12;2.20;99.90
16408;DHT22;8313;49.894;8.084;2023-01-26T16:13:38;2.20;99.90
16408;DHT22;8313;49.894;8.084;2023-01-26T16:16:05;2.20;99.90
16408;DHT22;8313;49.894;8.084;2023-01-26T16:18:30;2.20;99.90
16408;DHT22;8313;49.894;8.084;2023-01-26T16:20:56;2.30;99.90
16408;DHT22;8313;49.894;8.084;2023-01-26T16:23:26;2.30;99.90
16408;DHT22;8313;49.894;8.084;2023-01-26T16:25:53;2.30;99.90
16408;DHT22;8313;49.894;8.084;2023-01-26T16:28:20;2.30;99.90
16408;DHT22;8313;49.894;8.084;2023-01-26T16:30:47;2.30;99.90
16408;DHT22;8313;49.894;8.084;2023-01-26T16:33:17;2.30;99.90
16408;DHT22;8313;49.894;8.084;2023-01-26T16:35:45;2.30;99.90
16408;DHT22;8313;49.894;8.084;2023-01-26T16:38:11;2.30;99.90
16408;DHT22;8313;49.894;8.084;2023-01-26T16:40:41;2.30;99.90
16408;DHT22;8313;49.894;8.084;2023-01-26T16:43:18;2.30;99.90
16408;DHT22;8313;49.894;8.084;2023-01-26T16:45:45;2.30;99.90
16408;DHT22;8313;49.894;8.084;2023-01-26T16:48:12;2.30;99.90
16408;DHT22;8313;49.894;8.084;2023-01-26T16:50:39;2.20;99.90
16408;DHT22;8313;49.894;8.084;2023-01-26T16:53:18;2.20;99.90
16408;DHT22;8313;49.894;8.084;2023-01-26T16:55:45;2.30;99.90
16408;DHT22;8313;49.894;8.084;2023-01-26T16:58:11;2.30;99.90
16408;DHT22;8313;49.894;8.084;2023-01-26T17:00:36;2.30;99.90
16408;DHT22;8313;49.894;8.084;2023-01-26T17:03:02;2.30;99.90
16408;DHT22;8313;49.894;8.084;2023-01-26T17:05:28;2.30;99.90
16408;DHT22;8313;49.894;8.084;2023-01-26T17:07:54;2.30;99.90
16408;DHT22;8313;49.894;8.084;2023-01-26T17:10:20;2.30;99.90
16408;DHT22;8313;49.894;8.084;2023-01-26T17:12:48;2.30;99.90
16408;DHT22;8313;49.894;8.084;2023-01-26T17:15:14;2.30;99.90
16408;DHT22;8313;49.894;8.084;2023-01-26T17:17:40;2.30;99.90
16408;DHT22;8313;49.894;8.084;2023-01-26T17:20:09;2.30;99.90
16408;DHT22;8313;49.894;8.084;2023-01-26T17:22:38;2.30;99.90
16408;DHT22;8313;49.894;8.084;2023-01-26T17:25:04;2.30;99.90
16408;DHT22;8313;49.894;8.084;2023-01-26T17:27:31;2.30;99.90
16408;DHT22;8313;49.894;8.084;2023-01-26T17:29:57;2.40;99.90
16408;DHT22;8313;49.894;8.084;2023-01-26T17:32:23;2.40;99.90
16408;DHT22;8313;49.894;8.084;2023-01-26T17:34:53;2.40;99.90
16408;DHT22;8313;49.894;8.084;2023-01-26T17:37:21;2.40;99.90
16408;DHT22;8313;49.894;8.084;2023-01-26T17:39:47;2.40;99.90
16408;DHT22;8313;49.894;8.084;2023-01-26T17:42:13;2.40;99.90
16408;DHT22;8313;49.894;8.084;2023-01-26T17:44:39;2.40;99.90
16408;DHT22;8313;49.894;8.084;2023-01-26T17:47:05;2.30;99.90
16408;DHT22;8313;49.894;8.084;2023-01-26T17:49:31;2.40;99.90
16408;DHT22;8313;49.894;8.084;2023-01-26T17:51:57;2.40;99.90
16408;DHT22;8313;49.894;8.084;2023-01-26T17:54:22;2.40;99.90